Aviation Digital Data Service (ADDS)

Output produced by METARs form (1825 UTC 24 June 2019)
found at http://www.aviationweather.gov/metar/data/
 
METAR text: UTSS 241800Z 16006KT 120V180 6000 NSC 25/08 Q1013 R09/70D NOSIG
Conditions at: UTSS (SAMARKAND , UZ) observed 1800 UTC 24 June 2019
Temperature: 25.0°C (77°F)
Dewpoint: 8.0°C (46°F) [RH = 34%]
Pressure (altimeter): 29.91 inches Hg (1013.0 mb)
Winds: from the SSE (160 degrees) at 7 MPH (6 knots; 3.1 m/s)
Visibility: 4 miles ( 6 km)
Ceiling: at least 12,000 feet AGL
Clouds: sky clear below 12,000 feet AGL
Weather: no significant weather observed at this time

METAR text: UTSS 241730Z 17006KT 6000 NSC 25/08 Q1013 R09/70D NOSIG
Conditions at: UTSS (SAMARKAND , UZ) observed 1730 UTC 24 June 2019
Temperature: 25.0°C (77°F)
Dewpoint: 8.0°C (46°F) [RH = 34%]
Pressure (altimeter): 29.91 inches Hg (1013.0 mb)
Winds: from the S (170 degrees) at 7 MPH (6 knots; 3.1 m/s)
Visibility: 4 miles ( 6 km)
Ceiling: at least 12,000 feet AGL
Clouds: sky clear below 12,000 feet AGL
Weather: no significant weather observed at this time

METAR text: UTSS 241700Z 15006KT 130V190 6000 NSC 26/07 Q1013 R09/70D NOSIG
Conditions at: UTSS (SAMARKAND , UZ) observed 1700 UTC 24 June 2019
Temperature: 26.0°C (79°F)
Dewpoint: 7.0°C (45°F) [RH = 30%]
Pressure (altimeter): 29.91 inches Hg (1013.0 mb)
Winds: from the SSE (150 degrees) at 7 MPH (6 knots; 3.1 m/s)
Visibility: 4 miles ( 6 km)
Ceiling: at least 12,000 feet AGL
Clouds: sky clear below 12,000 feet AGL
Weather: no significant weather observed at this time

METAR text: UTSS 241630Z 11004KT 6000 NSC 24/07 Q1013 R09/70D NOSIG
Conditions at: UTSS (SAMARKAND , UZ) observed 1630 UTC 24 June 2019
Temperature: 24.0°C (75°F)
Dewpoint: 7.0°C (45°F) [RH = 34%]
Pressure (altimeter): 29.91 inches Hg (1013.0 mb)
Winds: from the ESE (110 degrees) at 5 MPH (4 knots; 2.1 m/s)
Visibility: 4 miles ( 6 km)
Ceiling: at least 12,000 feet AGL
Clouds: sky clear below 12,000 feet AGL
Weather: no significant weather observed at this time

METAR text: UTSS 241600Z 11004KT 6000 NSC 25/06 Q1013 R09/70D NOSIG
Conditions at: UTSS (SAMARKAND , UZ) observed 1600 UTC 24 June 2019
Temperature: 25.0°C (77°F)
Dewpoint: 6.0°C (43°F) [RH = 30%]
Pressure (altimeter): 29.91 inches Hg (1013.0 mb)
Winds: from the ESE (110 degrees) at 5 MPH (4 knots; 2.1 m/s)
Visibility: 4 miles ( 6 km)
Ceiling: at least 12,000 feet AGL
Clouds: sky clear below 12,000 feet AGL
Weather: no significant weather observed at this time

METAR text: UTSS 241530Z 06006KT 9999 NSC 27/06 Q1013 R09/70D NOSIG
Conditions at: UTSS (SAMARKAND , UZ) observed 1530 UTC 24 June 2019
Temperature: 27.0°C (81°F)
Dewpoint: 6.0°C (43°F) [RH = 26%]
Pressure (altimeter): 29.91 inches Hg (1013.0 mb)
Winds: from the ENE (60 degrees) at 7 MPH (6 knots; 3.1 m/s)
Visibility: 6 or more miles (10+ km)
Ceiling: at least 12,000 feet AGL
Clouds: sky clear below 12,000 feet AGL
Weather: no significant weather observed at this time

METAR text: UTSS 241500Z 07008KT 9999 NSC 28/06 Q1013 R09/70D NOSIG
Conditions at: UTSS (SAMARKAND , UZ) observed 1500 UTC 24 June 2019
Temperature: 28.0°C (82°F)
Dewpoint: 6.0°C (43°F) [RH = 25%]
Pressure (altimeter): 29.91 inches Hg (1013.0 mb)
Winds: from the ENE (70 degrees) at 9 MPH (8 knots; 4.1 m/s)
Visibility: 6 or more miles (10+ km)
Ceiling: at least 12,000 feet AGL
Clouds: sky clear below 12,000 feet AGL
Weather: no significant weather observed at this time

METAR text: UTSS 241430Z 07008KT 9999 NSC 30/07 Q1012 R09/70D NOSIG
Conditions at: UTSS (SAMARKAND , UZ) observed 1430 UTC 24 June 2019
Temperature: 30.0°C (86°F)
Dewpoint: 7.0°C (45°F) [RH = 24%]
Pressure (altimeter): 29.88 inches Hg (1012.0 mb)
Winds: from the ENE (70 degrees) at 9 MPH (8 knots; 4.1 m/s)
Visibility: 6 or more miles (10+ km)
Ceiling: at least 12,000 feet AGL
Clouds: sky clear below 12,000 feet AGL
Weather: no significant weather observed at this time

METAR text: UTSS 241400Z 08010KT 9999 NSC 32/06 Q1012 R09/70D NOSIG
Conditions at: UTSS (SAMARKAND , UZ) observed 1400 UTC 24 June 2019
Temperature: 32.0°C (90°F)
Dewpoint: 6.0°C (43°F) [RH = 20%]
Pressure (altimeter): 29.88 inches Hg (1012.0 mb)
Winds: from the E (80 degrees) at 12 MPH (10 knots; 5.1 m/s)
Visibility: 6 or more miles (10+ km)
Ceiling: at least 12,000 feet AGL
Clouds: sky clear below 12,000 feet AGL
Weather: no significant weather observed at this time

METAR text: UTSS 241330Z 06012KT 9999 NSC 32/05 Q1012 R09/70D NOSIG
Conditions at: UTSS (SAMARKAND , UZ) observed 1330 UTC 24 June 2019
Temperature: 32.0°C (90°F)
Dewpoint: 5.0°C (41°F) [RH = 18%]
Pressure (altimeter): 29.88 inches Hg (1012.0 mb)
Winds: from the ENE (60 degrees) at 14 MPH (12 knots; 6.2 m/s)
Visibility: 6 or more miles (10+ km)
Ceiling: at least 12,000 feet AGL
Clouds: sky clear below 12,000 feet AGL
Weather: no significant weather observed at this time

METAR text: UTSS 241300Z 05014KT 9999 NSC 33/04 Q1012 R09/70D NOSIG
Conditions at: UTSS (SAMARKAND , UZ) observed 1300 UTC 24 June 2019
Temperature: 33.0°C (91°F)
Dewpoint: 4.0°C (39°F) [RH = 16%]
Pressure (altimeter): 29.88 inches Hg (1012.0 mb)
Winds: from the NE (50 degrees) at 16 MPH (14 knots; 7.2 m/s)
Visibility: 6 or more miles (10+ km)
Ceiling: at least 12,000 feet AGL
Clouds: sky clear below 12,000 feet AGL
Weather: no significant weather observed at this time

METAR text: UTSS 241230Z 05012KT 020V080 9999 NSC 34/05 Q1012 R09/70D NOSIG
Conditions at: UTSS (SAMARKAND , UZ) observed 1230 UTC 24 June 2019
Temperature: 34.0°C (93°F)
Dewpoint: 5.0°C (41°F) [RH = 16%]
Pressure (altimeter): 29.88 inches Hg (1012.0 mb)
Winds: from the NE (50 degrees) at 14 MPH (12 knots; 6.2 m/s)
Visibility: 6 or more miles (10+ km)
Ceiling: at least 12,000 feet AGL
Clouds: sky clear below 12,000 feet AGL
Weather: no significant weather observed at this time

METAR text: UTSS 241200Z 05012KT 010V070 9999 NSC 34/04 Q1012 R09/70D NOSIG
Conditions at: UTSS (SAMARKAND , UZ) observed 1200 UTC 24 June 2019
Temperature: 34.0°C (93°F)
Dewpoint: 4.0°C (39°F) [RH = 15%]
Pressure (altimeter): 29.88 inches Hg (1012.0 mb)
Winds: from the NE (50 degrees) at 14 MPH (12 knots; 6.2 m/s)
Visibility: 6 or more miles (10+ km)
Ceiling: at least 12,000 feet AGL
Clouds: sky clear below 12,000 feet AGL
Weather: no significant weather observed at this time

METAR text: UTSS 241130Z 02010G20KT 9999 NSC 34/06 Q1012 R09/70D NOSIG
Conditions at: UTSS (SAMARKAND , UZ) observed 1130 UTC 24 June 2019
Temperature: 34.0°C (93°F)
Dewpoint: 6.0°C (43°F) [RH = 18%]
Pressure (altimeter): 29.88 inches Hg (1012.0 mb)
Winds: from the NNE (20 degrees) at 12 MPH (10 knots; 5.1 m/s)
gusting to 23 MPH (20 knots; 10.3 m/s)
Visibility: 6 or more miles (10+ km)
Ceiling: at least 12,000 feet AGL
Clouds: sky clear below 12,000 feet AGL
Weather: no significant weather observed at this time

METAR text: UTSS 241100Z 03010KT 360V060 9999 NSC 35/05 Q1012 R09/70D NOSIG
Conditions at: UTSS (SAMARKAND , UZ) observed 1100 UTC 24 June 2019
Temperature: 35.0°C (95°F)
Dewpoint: 5.0°C (41°F) [RH = 16%]
Pressure (altimeter): 29.88 inches Hg (1012.0 mb)
Winds: from the NNE (30 degrees) at 12 MPH (10 knots; 5.1 m/s)
Visibility: 6 or more miles (10+ km)
Ceiling: at least 12,000 feet AGL
Clouds: sky clear below 12,000 feet AGL
Weather: no significant weather observed at this time

METAR text: UTSS 241030Z 05010KT 340V090 9999 NSC 34/04 Q1012 R09/70D NOSIG
Conditions at: UTSS (SAMARKAND , UZ) observed 1030 UTC 24 June 2019
Temperature: 34.0°C (93°F)
Dewpoint: 4.0°C (39°F) [RH = 15%]
Pressure (altimeter): 29.88 inches Hg (1012.0 mb)
Winds: from the NE (50 degrees) at 12 MPH (10 knots; 5.1 m/s)
Visibility: 6 or more miles (10+ km)
Ceiling: at least 12,000 feet AGL
Clouds: sky clear below 12,000 feet AGL
Weather: no significant weather observed at this time

METAR text: UTSS 241000Z 04014KT 360V080 9999 NSC 34/05 Q1012 R09/70D NOSIG
Conditions at: UTSS (SAMARKAND , UZ) observed 1000 UTC 24 June 2019
Temperature: 34.0°C (93°F)
Dewpoint: 5.0°C (41°F) [RH = 16%]
Pressure (altimeter): 29.88 inches Hg (1012.0 mb)
Winds: from the NE (40 degrees) at 16 MPH (14 knots; 7.2 m/s)
Visibility: 6 or more miles (10+ km)
Ceiling: at least 12,000 feet AGL
Clouds: sky clear below 12,000 feet AGL
Weather: no significant weather observed at this time

METAR text: UTSS 240930Z 05012KT 350V080 9999 NSC 34/05 Q1012 R09/70D NOSIG
Conditions at: UTSS (SAMARKAND , UZ) observed 0930 UTC 24 June 2019
Temperature: 34.0°C (93°F)
Dewpoint: 5.0°C (41°F) [RH = 16%]
Pressure (altimeter): 29.88 inches Hg (1012.0 mb)
Winds: from the NE (50 degrees) at 14 MPH (12 knots; 6.2 m/s)
Visibility: 6 or more miles (10+ km)
Ceiling: at least 12,000 feet AGL
Clouds: sky clear below 12,000 feet AGL
Weather: no significant weather observed at this time

METAR text: UTSS 240900Z 03008KT 350V060 9999 NSC 34/04 Q1013 R09/70D NOSIG
Conditions at: UTSS (SAMARKAND , UZ) observed 0900 UTC 24 June 2019
Temperature: 34.0°C (93°F)
Dewpoint: 4.0°C (39°F) [RH = 15%]
Pressure (altimeter): 29.91 inches Hg (1013.0 mb)
Winds: from the NNE (30 degrees) at 9 MPH (8 knots; 4.1 m/s)
Visibility: 6 or more miles (10+ km)
Ceiling: at least 12,000 feet AGL
Clouds: sky clear below 12,000 feet AGL
Weather: no significant weather observed at this time

METAR text: UTSS 240830Z 03010KT 350V090 9999 NSC 34/05 Q1013 R09/70D NOSIG
Conditions at: UTSS (SAMARKAND , UZ) observed 0830 UTC 24 June 2019
Temperature: 34.0°C (93°F)
Dewpoint: 5.0°C (41°F) [RH = 16%]
Pressure (altimeter): 29.91 inches Hg (1013.0 mb)
Winds: from the NNE (30 degrees) at 12 MPH (10 knots; 5.1 m/s)
Visibility: 6 or more miles (10+ km)
Ceiling: at least 12,000 feet AGL
Clouds: sky clear below 12,000 feet AGL
Weather: no significant weather observed at this time

METAR text: UTSS 240800Z 07010KT 020V110 9999 NSC 34/07 Q1013 R09/70D NOSIG
Conditions at: UTSS (SAMARKAND , UZ) observed 0800 UTC 24 June 2019
Temperature: 34.0°C (93°F)
Dewpoint: 7.0°C (45°F) [RH = 19%]
Pressure (altimeter): 29.91 inches Hg (1013.0 mb)
Winds: from the ENE (70 degrees) at 12 MPH (10 knots; 5.1 m/s)
Visibility: 6 or more miles (10+ km)
Ceiling: at least 12,000 feet AGL
Clouds: sky clear below 12,000 feet AGL
Weather: no significant weather observed at this time

METAR text: UTSS 240730Z 10012KT 9999 NSC 34/06 Q1013 R09/70D NOSIG
Conditions at: UTSS (SAMARKAND , UZ) observed 0730 UTC 24 June 2019
Temperature: 34.0°C (93°F)
Dewpoint: 6.0°C (43°F) [RH = 18%]
Pressure (altimeter): 29.91 inches Hg (1013.0 mb)
Winds: from the E (100 degrees) at 14 MPH (12 knots; 6.2 m/s)
Visibility: 6 or more miles (10+ km)
Ceiling: at least 12,000 feet AGL
Clouds: sky clear below 12,000 feet AGL
Weather: no significant weather observed at this time

METAR text: UTSS 240700Z 08010KT 030V110 9999 NSC 33/06 Q1013 R09/70D NOSIG
Conditions at: UTSS (SAMARKAND , UZ) observed 0700 UTC 24 June 2019
Temperature: 33.0°C (91°F)
Dewpoint: 6.0°C (43°F) [RH = 19%]
Pressure (altimeter): 29.91 inches Hg (1013.0 mb)
Winds: from the E (80 degrees) at 12 MPH (10 knots; 5.1 m/s)
Visibility: 6 or more miles (10+ km)
Ceiling: at least 12,000 feet AGL
Clouds: sky clear below 12,000 feet AGL
Weather: no significant weather observed at this time

METAR text: UTSS 240630Z 04010KT 360V070 9999 NSC 33/05 Q1013 R09/70D NOSIG
Conditions at: UTSS (SAMARKAND , UZ) observed 0630 UTC 24 June 2019
Temperature: 33.0°C (91°F)
Dewpoint: 5.0°C (41°F) [RH = 17%]
Pressure (altimeter): 29.91 inches Hg (1013.0 mb)
Winds: from the NE (40 degrees) at 12 MPH (10 knots; 5.1 m/s)
Visibility: 6 or more miles (10+ km)
Ceiling: at least 12,000 feet AGL
Clouds: sky clear below 12,000 feet AGL
Weather: no significant weather observed at this time

METAR text: UTSS 240600Z 05012KT 020V080 9999 NSC 32/05 Q1013 R09/70D NOSIG
Conditions at: UTSS (SAMARKAND , UZ) observed 0600 UTC 24 June 2019
Temperature: 32.0°C (90°F)
Dewpoint: 5.0°C (41°F) [RH = 18%]
Pressure (altimeter): 29.91 inches Hg (1013.0 mb)
Winds: from the NE (50 degrees) at 14 MPH (12 knots; 6.2 m/s)
Visibility: 6 or more miles (10+ km)
Ceiling: at least 12,000 feet AGL
Clouds: sky clear below 12,000 feet AGL
Weather: no significant weather observed at this time

METAR text: UTSS 240530Z 09004G16KT 040V160 9999 NSC 31/10 Q1013 R09/70D NOSIG
Conditions at: UTSS (SAMARKAND , UZ) observed 0530 UTC 24 June 2019
Temperature: 31.0°C (88°F)
Dewpoint: 10.0°C (50°F) [RH = 27%]
Pressure (altimeter): 29.91 inches Hg (1013.0 mb)
Winds: from the E (90 degrees) at 5 MPH (4 knots; 2.1 m/s)
gusting to 18 MPH (16 knots; 8.2 m/s)
Visibility: 6 or more miles (10+ km)
Ceiling: at least 12,000 feet AGL
Clouds: sky clear below 12,000 feet AGL
Weather: no significant weather observed at this time

METAR text: UTSS 240500Z 14002KT 9999 NSC 30/10 Q1013 R09/CLRD70 NOSIG
Conditions at: UTSS (SAMARKAND , UZ) observed 0500 UTC 24 June 2019
Temperature: 30.0°C (86°F)
Dewpoint: 10.0°C (50°F) [RH = 29%]
Pressure (altimeter): 29.91 inches Hg (1013.0 mb)
Winds: from the SE (140 degrees) at 2 MPH (2 knots; 1.0 m/s)
Visibility: 6 or more miles (10+ km)
Ceiling: at least 12,000 feet AGL
Clouds: sky clear below 12,000 feet AGL
Weather: no significant weather observed at this time

METAR text: UTSS 240430Z 16004KT 110V270 9999 NSC 29/10 Q1013 R09/70D NOSIG
Conditions at: UTSS (SAMARKAND , UZ) observed 0430 UTC 24 June 2019
Temperature: 29.0°C (84°F)
Dewpoint: 10.0°C (50°F) [RH = 31%]
Pressure (altimeter): 29.91 inches Hg (1013.0 mb)
Winds: from the SSE (160 degrees) at 5 MPH (4 knots; 2.1 m/s)
Visibility: 6 or more miles (10+ km)
Ceiling: at least 12,000 feet AGL
Clouds: sky clear below 12,000 feet AGL
Weather: no significant weather observed at this time

METAR text: UTSS 240400Z VRB02KT 9999 NSC 28/10 Q1014 R27/70D NOSIG
Conditions at: UTSS (SAMARKAND , UZ) observed 0400 UTC 24 June 2019
Temperature: 28.0°C (82°F)
Dewpoint: 10.0°C (50°F) [RH = 32%]
Pressure (altimeter): 29.94 inches Hg (1014.0 mb)
Winds: variable direction winds at 2 MPH (2 knots; 1.0 m/s)
Visibility: 6 or more miles (10+ km)
Ceiling: at least 12,000 feet AGL
Clouds: sky clear below 12,000 feet AGL
Weather: no significant weather observed at this time

METAR text: UTSS 240330Z 16004KT 120V220 9999 NSC 27/10 Q1013 R09/70D NOSIG
Conditions at: UTSS (SAMARKAND , UZ) observed 0330 UTC 24 June 2019
Temperature: 27.0°C (81°F)
Dewpoint: 10.0°C (50°F) [RH = 34%]
Pressure (altimeter): 29.91 inches Hg (1013.0 mb)
Winds: from the SSE (160 degrees) at 5 MPH (4 knots; 2.1 m/s)
Visibility: 6 or more miles (10+ km)
Ceiling: at least 12,000 feet AGL
Clouds: sky clear below 12,000 feet AGL
Weather: no significant weather observed at this time

METAR text: UTSS 240300Z 15004KT 100V200 9999 NSC 25/09 Q1013 R09/70D NOSIG
Conditions at: UTSS (SAMARKAND , UZ) observed 0300 UTC 24 June 2019
Temperature: 25.0°C (77°F)
Dewpoint: 9.0°C (48°F) [RH = 36%]
Pressure (altimeter): 29.91 inches Hg (1013.0 mb)
Winds: from the SSE (150 degrees) at 5 MPH (4 knots; 2.1 m/s)
Visibility: 6 or more miles (10+ km)
Ceiling: at least 12,000 feet AGL
Clouds: sky clear below 12,000 feet AGL
Weather: no significant weather observed at this time

METAR text: UTSS 240230Z 17004KT 130V200 9999 NSC 24/09 Q1013 R09/70D NOSIG
Conditions at: UTSS (SAMARKAND , UZ) observed 0230 UTC 24 June 2019
Temperature: 24.0°C (75°F)
Dewpoint: 9.0°C (48°F) [RH = 38%]
Pressure (altimeter): 29.91 inches Hg (1013.0 mb)
Winds: from the S (170 degrees) at 5 MPH (4 knots; 2.1 m/s)
Visibility: 6 or more miles (10+ km)
Ceiling: at least 12,000 feet AGL
Clouds: sky clear below 12,000 feet AGL
Weather: no significant weather observed at this time

METAR text: UTSS 240200Z 16004KT 120V210 9999 NSC 23/09 Q1013 R09/CLRD70 NOSIG
Conditions at: UTSS (SAMARKAND , UZ) observed 0200 UTC 24 June 2019
Temperature: 23.0°C (73°F)
Dewpoint: 9.0°C (48°F) [RH = 41%]
Pressure (altimeter): 29.91 inches Hg (1013.0 mb)
Winds: from the SSE (160 degrees) at 5 MPH (4 knots; 2.1 m/s)
Visibility: 6 or more miles (10+ km)
Ceiling: at least 12,000 feet AGL
Clouds: sky clear below 12,000 feet AGL
Weather: no significant weather observed at this time

METAR text: UTSS 240130Z 16006KT 130V190 9999 NSC 22/08 Q1013 R09/70D NOSIG
Conditions at: UTSS (SAMARKAND , UZ) observed 0130 UTC 24 June 2019
Temperature: 22.0°C (72°F)
Dewpoint: 8.0°C (46°F) [RH = 41%]
Pressure (altimeter): 29.91 inches Hg (1013.0 mb)
Winds: from the SSE (160 degrees) at 7 MPH (6 knots; 3.1 m/s)
Visibility: 6 or more miles (10+ km)
Ceiling: at least 12,000 feet AGL
Clouds: sky clear below 12,000 feet AGL
Weather: no significant weather observed at this time

METAR text: UTSS 240100Z 16006KT 9999 NSC 21/08 Q1013 R09/70D NOSIG
Conditions at: UTSS (SAMARKAND , UZ) observed 0100 UTC 24 June 2019
Temperature: 21.0°C (70°F)
Dewpoint: 8.0°C (46°F) [RH = 43%]
Pressure (altimeter): 29.91 inches Hg (1013.0 mb)
Winds: from the SSE (160 degrees) at 7 MPH (6 knots; 3.1 m/s)
Visibility: 6 or more miles (10+ km)
Ceiling: at least 12,000 feet AGL
Clouds: sky clear below 12,000 feet AGL
Weather: no significant weather observed at this time

METAR text: UTSS 240030Z 13004KT 110V170 9999 NSC 19/08 Q1013 R09/70D NOSIG
Conditions at: UTSS (SAMARKAND , UZ) observed 0030 UTC 24 June 2019
Temperature: 19.0°C (66°F)
Dewpoint: 8.0°C (46°F) [RH = 49%]
Pressure (altimeter): 29.91 inches Hg (1013.0 mb)
Winds: from the SE (130 degrees) at 5 MPH (4 knots; 2.1 m/s)
Visibility: 6 or more miles (10+ km)
Ceiling: at least 12,000 feet AGL
Clouds: sky clear below 12,000 feet AGL
Weather: no significant weather observed at this time

METAR text: UTSS 240000Z 14004KT 110V170 9999 NSC 19/08 Q1012 R09/70D NOSIG
Conditions at: UTSS (SAMARKAND , UZ) observed 0000 UTC 24 June 2019
Temperature: 19.0°C (66°F)
Dewpoint: 8.0°C (46°F) [RH = 49%]
Pressure (altimeter): 29.88 inches Hg (1012.0 mb)
Winds: from the SE (140 degrees) at 5 MPH (4 knots; 2.1 m/s)
Visibility: 6 or more miles (10+ km)
Ceiling: at least 12,000 feet AGL
Clouds: sky clear below 12,000 feet AGL
Weather: no significant weather observed at this time

METAR text: UTSS 232330Z 04004KT 010V090 6000 NSC 18/08 Q1012 R09/70D NOSIG
Conditions at: UTSS (SAMARKAND , UZ) observed 2330 UTC 23 June 2019
Temperature: 18.0°C (64°F)
Dewpoint: 8.0°C (46°F) [RH = 52%]
Pressure (altimeter): 29.88 inches Hg (1012.0 mb)
Winds: from the NE (40 degrees) at 5 MPH (4 knots; 2.1 m/s)
Visibility: 4 miles ( 6 km)
Ceiling: at least 12,000 feet AGL
Clouds: sky clear below 12,000 feet AGL
Weather: no significant weather observed at this time

METAR text: UTSS 232300Z 16006KT 130V190 6000 NSC 21/07 Q1012 R09/CLRD70 NOSIG
Conditions at: UTSS (SAMARKAND , UZ) observed 2300 UTC 23 June 2019
Temperature: 21.0°C (70°F)
Dewpoint: 7.0°C (45°F) [RH = 40%]
Pressure (altimeter): 29.88 inches Hg (1012.0 mb)
Winds: from the SSE (160 degrees) at 7 MPH (6 knots; 3.1 m/s)
Visibility: 4 miles ( 6 km)
Ceiling: at least 12,000 feet AGL
Clouds: sky clear below 12,000 feet AGL
Weather: no significant weather observed at this time

METAR text: UTSS 232230Z 16008KT 6000 NSC 22/07 Q1012 R09/70D NOSIG
Conditions at: UTSS (SAMARKAND , UZ) observed 2230 UTC 23 June 2019
Temperature: 22.0°C (72°F)
Dewpoint: 7.0°C (45°F) [RH = 38%]
Pressure (altimeter): 29.88 inches Hg (1012.0 mb)
Winds: from the SSE (160 degrees) at 9 MPH (8 knots; 4.1 m/s)
Visibility: 4 miles ( 6 km)
Ceiling: at least 12,000 feet AGL
Clouds: sky clear below 12,000 feet AGL
Weather: no significant weather observed at this time

METAR text: UTSS 232200Z 16006KT 6000 NSC 22/07 Q1012 R09/70D NOSIG
Conditions at: UTSS (SAMARKAND , UZ) observed 2200 UTC 23 June 2019
Temperature: 22.0°C (72°F)
Dewpoint: 7.0°C (45°F) [RH = 38%]
Pressure (altimeter): 29.88 inches Hg (1012.0 mb)
Winds: from the SSE (160 degrees) at 7 MPH (6 knots; 3.1 m/s)
Visibility: 4 miles ( 6 km)
Ceiling: at least 12,000 feet AGL
Clouds: sky clear below 12,000 feet AGL
Weather: no significant weather observed at this time

METAR text: UTSS 232130Z 15004KT 110V180 6000 NSC 22/08 Q1012 R09/70D NOSIG
Conditions at: UTSS (SAMARKAND , UZ) observed 2130 UTC 23 June 2019
Temperature: 22.0°C (72°F)
Dewpoint: 8.0°C (46°F) [RH = 41%]
Pressure (altimeter): 29.88 inches Hg (1012.0 mb)
Winds: from the SSE (150 degrees) at 5 MPH (4 knots; 2.1 m/s)
Visibility: 4 miles ( 6 km)
Ceiling: at least 12,000 feet AGL
Clouds: sky clear below 12,000 feet AGL
Weather: no significant weather observed at this time

METAR text: UTSS 232100Z 18004KT 6000 NSC 22/08 Q1012 R09/70D NOSIG
Conditions at: UTSS (SAMARKAND , UZ) observed 2100 UTC 23 June 2019
Temperature: 22.0°C (72°F)
Dewpoint: 8.0°C (46°F) [RH = 41%]
Pressure (altimeter): 29.88 inches Hg (1012.0 mb)
Winds: from the S (180 degrees) at 5 MPH (4 knots; 2.1 m/s)
Visibility: 4 miles ( 6 km)
Ceiling: at least 12,000 feet AGL
Clouds: sky clear below 12,000 feet AGL
Weather: no significant weather observed at this time

METAR text: UTSS 232030Z 00000KT 6000 NSC 21/08 Q1012 R09/70D NOSIG
Conditions at: UTSS (SAMARKAND , UZ) observed 2030 UTC 23 June 2019
Temperature: 21.0°C (70°F)
Dewpoint: 8.0°C (46°F) [RH = 43%]
Pressure (altimeter): 29.88 inches Hg (1012.0 mb)
Winds: calm
Visibility: 4 miles ( 6 km)
Ceiling: at least 12,000 feet AGL
Clouds: sky clear below 12,000 feet AGL
Weather: no significant weather observed at this time

METAR text: UTSS 232000Z 00000KT 6000 NSC 20/09 Q1012 R09/70D NOSIG
Conditions at: UTSS (SAMARKAND , UZ) observed 2000 UTC 23 June 2019
Temperature: 20.0°C (68°F)
Dewpoint: 9.0°C (48°F) [RH = 49%]
Pressure (altimeter): 29.88 inches Hg (1012.0 mb)
Winds: calm
Visibility: 4 miles ( 6 km)
Ceiling: at least 12,000 feet AGL
Clouds: sky clear below 12,000 feet AGL
Weather: no significant weather observed at this time

METAR text: UTSS 231930Z 17004KT 150V220 6000 NSC 22/08 Q1012 R09/70D NOSIG
Conditions at: UTSS (SAMARKAND , UZ) observed 1930 UTC 23 June 2019
Temperature: 22.0°C (72°F)
Dewpoint: 8.0°C (46°F) [RH = 41%]
Pressure (altimeter): 29.88 inches Hg (1012.0 mb)
Winds: from the S (170 degrees) at 5 MPH (4 knots; 2.1 m/s)
Visibility: 4 miles ( 6 km)
Ceiling: at least 12,000 feet AGL
Clouds: sky clear below 12,000 feet AGL
Weather: no significant weather observed at this time

METAR text: UTSS 231900Z 17004KT 6000 NSC 23/08 Q1012 R09/70D NOSIG
Conditions at: UTSS (SAMARKAND , UZ) observed 1900 UTC 23 June 2019
Temperature: 23.0°C (73°F)
Dewpoint: 8.0°C (46°F) [RH = 38%]
Pressure (altimeter): 29.88 inches Hg (1012.0 mb)
Winds: from the S (170 degrees) at 5 MPH (4 knots; 2.1 m/s)
Visibility: 4 miles ( 6 km)
Ceiling: at least 12,000 feet AGL
Clouds: sky clear below 12,000 feet AGL
Weather: no significant weather observed at this time

METAR text: UTSS 231830Z 16004KT 140V200 6000 NSC 22/08 Q1012 R09/70D NOSIG
Conditions at: UTSS (SAMARKAND , UZ) observed 1830 UTC 23 June 2019
Temperature: 22.0°C (72°F)
Dewpoint: 8.0°C (46°F) [RH = 41%]
Pressure (altimeter): 29.88 inches Hg (1012.0 mb)
Winds: from the SSE (160 degrees) at 5 MPH (4 knots; 2.1 m/s)
Visibility: 4 miles ( 6 km)
Ceiling: at least 12,000 feet AGL
Clouds: sky clear below 12,000 feet AGL
Weather: no significant weather observed at this time

METAR text: UTSS 231800Z 00000KT 6000 NSC 21/08 Q1012 R09/70D NOSIG
Conditions at: UTSS (SAMARKAND , UZ) observed 1800 UTC 23 June 2019
Temperature: 21.0°C (70°F)
Dewpoint: 8.0°C (46°F) [RH = 43%]
Pressure (altimeter): 29.88 inches Hg (1012.0 mb)
Winds: calm
Visibility: 4 miles ( 6 km)
Ceiling: at least 12,000 feet AGL
Clouds: sky clear below 12,000 feet AGL
Weather: no significant weather observed at this time

METAR text: UTSS 231730Z 00000KT 6000 NSC 20/08 Q1013 R09/70D NOSIG
Conditions at: UTSS (SAMARKAND , UZ) observed 1730 UTC 23 June 2019
Temperature: 20.0°C (68°F)
Dewpoint: 8.0°C (46°F) [RH = 46%]
Pressure (altimeter): 29.91 inches Hg (1013.0 mb)
Winds: calm
Visibility: 4 miles ( 6 km)
Ceiling: at least 12,000 feet AGL
Clouds: sky clear below 12,000 feet AGL
Weather: no significant weather observed at this time

METAR text: UTSS 231700Z 11002KT 6000 NSC 23/07 Q1012 R09/70D NOSIG
Conditions at: UTSS (SAMARKAND , UZ) observed 1700 UTC 23 June 2019
Temperature: 23.0°C (73°F)
Dewpoint: 7.0°C (45°F) [RH = 36%]
Pressure (altimeter): 29.88 inches Hg (1012.0 mb)
Winds: from the ESE (110 degrees) at 2 MPH (2 knots; 1.0 m/s)
Visibility: 4 miles ( 6 km)
Ceiling: at least 12,000 feet AGL
Clouds: sky clear below 12,000 feet AGL
Weather: no significant weather observed at this time

METAR text: UTSS 231630Z VRB02KT 6000 NSC 22/08 Q1012 R09/70D NOSIG
Conditions at: UTSS (SAMARKAND , UZ) observed 1630 UTC 23 June 2019
Temperature: 22.0°C (72°F)
Dewpoint: 8.0°C (46°F) [RH = 41%]
Pressure (altimeter): 29.88 inches Hg (1012.0 mb)
Winds: variable direction winds at 2 MPH (2 knots; 1.0 m/s)
Visibility: 4 miles ( 6 km)
Ceiling: at least 12,000 feet AGL
Clouds: sky clear below 12,000 feet AGL
Weather: no significant weather observed at this time

METAR text: UTSS 231600Z 08004KT 6000 NSC 23/06 Q1012 R09/70D NOSIG
Conditions at: UTSS (SAMARKAND , UZ) observed 1600 UTC 23 June 2019
Temperature: 23.0°C (73°F)
Dewpoint: 6.0°C (43°F) [RH = 33%]
Pressure (altimeter): 29.88 inches Hg (1012.0 mb)
Winds: from the E (80 degrees) at 5 MPH (4 knots; 2.1 m/s)
Visibility: 4 miles ( 6 km)
Ceiling: at least 12,000 feet AGL
Clouds: sky clear below 12,000 feet AGL
Weather: no significant weather observed at this time

METAR text: UTSS 231530Z 08006KT 9999 NSC 25/06 Q1012 R09/70D NOSIG
Conditions at: UTSS (SAMARKAND , UZ) observed 1530 UTC 23 June 2019
Temperature: 25.0°C (77°F)
Dewpoint: 6.0°C (43°F) [RH = 30%]
Pressure (altimeter): 29.88 inches Hg (1012.0 mb)
Winds: from the E (80 degrees) at 7 MPH (6 knots; 3.1 m/s)
Visibility: 6 or more miles (10+ km)
Ceiling: at least 12,000 feet AGL
Clouds: sky clear below 12,000 feet AGL
Weather: no significant weather observed at this time

METAR text: UTSS 231500Z 05006KT 9999 NSC 27/07 Q1012 R09/70D NOSIG
Conditions at: UTSS (SAMARKAND , UZ) observed 1500 UTC 23 June 2019
Temperature: 27.0°C (81°F)
Dewpoint: 7.0°C (45°F) [RH = 28%]
Pressure (altimeter): 29.88 inches Hg (1012.0 mb)
Winds: from the NE (50 degrees) at 7 MPH (6 knots; 3.1 m/s)
Visibility: 6 or more miles (10+ km)
Ceiling: at least 12,000 feet AGL
Clouds: sky clear below 12,000 feet AGL
Weather: no significant weather observed at this time

METAR text: UTSS 231430Z 04008KT 9999 NSC 29/06 Q1012 R09/CLRD70 NOSIG
Conditions at: UTSS (SAMARKAND , UZ) observed 1430 UTC 23 June 2019
Temperature: 29.0°C (84°F)
Dewpoint: 6.0°C (43°F) [RH = 23%]
Pressure (altimeter): 29.88 inches Hg (1012.0 mb)
Winds: from the NE (40 degrees) at 9 MPH (8 knots; 4.1 m/s)
Visibility: 6 or more miles (10+ km)
Ceiling: at least 12,000 feet AGL
Clouds: sky clear below 12,000 feet AGL
Weather: no significant weather observed at this time

METAR text: UTSS 231400Z 04010KT 9999 NSC 30/06 Q1012 R09/70D NOSIG
Conditions at: UTSS (SAMARKAND , UZ) observed 1400 UTC 23 June 2019
Temperature: 30.0°C (86°F)
Dewpoint: 6.0°C (43°F) [RH = 22%]
Pressure (altimeter): 29.88 inches Hg (1012.0 mb)
Winds: from the NE (40 degrees) at 12 MPH (10 knots; 5.1 m/s)
Visibility: 6 or more miles (10+ km)
Ceiling: at least 12,000 feet AGL
Clouds: sky clear below 12,000 feet AGL
Weather: no significant weather observed at this time

METAR text: UTSS 231330Z 04014KT 9999 NSC 31/06 Q1011 R09/70D NOSIG
Conditions at: UTSS (SAMARKAND , UZ) observed 1330 UTC 23 June 2019
Temperature: 31.0°C (88°F)
Dewpoint: 6.0°C (43°F) [RH = 21%]
Pressure (altimeter): 29.85 inches Hg (1011.0 mb)
Winds: from the NE (40 degrees) at 16 MPH (14 knots; 7.2 m/s)
Visibility: 6 or more miles (10+ km)
Ceiling: at least 12,000 feet AGL
Clouds: sky clear below 12,000 feet AGL
Weather: no significant weather observed at this time

METAR text: UTSS 231300Z 04014KT 9999 NSC 32/06 Q1011 R09/70D NOSIG
Conditions at: UTSS (SAMARKAND , UZ) observed 1300 UTC 23 June 2019
Temperature: 32.0°C (90°F)
Dewpoint: 6.0°C (43°F) [RH = 20%]
Pressure (altimeter): 29.85 inches Hg (1011.0 mb)
Winds: from the NE (40 degrees) at 16 MPH (14 knots; 7.2 m/s)
Visibility: 6 or more miles (10+ km)
Ceiling: at least 12,000 feet AGL
Clouds: sky clear below 12,000 feet AGL
Weather: no significant weather observed at this time

METAR text: UTSS 231230Z 04014KT 9999 NSC 32/06 Q1011 R09/70D NOSIG
Conditions at: UTSS (SAMARKAND , UZ) observed 1230 UTC 23 June 2019
Temperature: 32.0°C (90°F)
Dewpoint: 6.0°C (43°F) [RH = 20%]
Pressure (altimeter): 29.85 inches Hg (1011.0 mb)
Winds: from the NE (40 degrees) at 16 MPH (14 knots; 7.2 m/s)
Visibility: 6 or more miles (10+ km)
Ceiling: at least 12,000 feet AGL
Clouds: sky clear below 12,000 feet AGL
Weather: no significant weather observed at this time

METAR text: UTSS 231200Z 04012KT 010V070 9999 NSC 32/05 Q1011 R09/70D NOSIG
Conditions at: UTSS (SAMARKAND , UZ) observed 1200 UTC 23 June 2019
Temperature: 32.0°C (90°F)
Dewpoint: 5.0°C (41°F) [RH = 18%]
Pressure (altimeter): 29.85 inches Hg (1011.0 mb)
Winds: from the NE (40 degrees) at 14 MPH (12 knots; 6.2 m/s)
Visibility: 6 or more miles (10+ km)
Ceiling: at least 12,000 feet AGL
Clouds: sky clear below 12,000 feet AGL
Weather: no significant weather observed at this time

METAR text: UTSS 231130Z 05016KT 9999 NSC 33/03 Q1011 R09/70D NOSIG
Conditions at: UTSS (SAMARKAND , UZ) observed 1130 UTC 23 June 2019
Temperature: 33.0°C (91°F)
Dewpoint: 3.0°C (37°F) [RH = 15%]
Pressure (altimeter): 29.85 inches Hg (1011.0 mb)
Winds: from the NE (50 degrees) at 18 MPH (16 knots; 8.2 m/s)
Visibility: 6 or more miles (10+ km)
Ceiling: at least 12,000 feet AGL
Clouds: sky clear below 12,000 feet AGL
Weather: no significant weather observed at this time

METAR text: UTSS 231100Z 06016KT 9999 NSC 33/04 Q1011 R09/70D NOSIG
Conditions at: UTSS (SAMARKAND , UZ) observed 1100 UTC 23 June 2019
Temperature: 33.0°C (91°F)
Dewpoint: 4.0°C (39°F) [RH = 16%]
Pressure (altimeter): 29.85 inches Hg (1011.0 mb)
Winds: from the ENE (60 degrees) at 18 MPH (16 knots; 8.2 m/s)
Visibility: 6 or more miles (10+ km)
Ceiling: at least 12,000 feet AGL
Clouds: sky clear below 12,000 feet AGL
Weather: no significant weather observed at this time

METAR text: UTSS 231030Z 05014KT 9999 NSC 33/05 Q1011 R09/70D NOSIG
Conditions at: UTSS (SAMARKAND , UZ) observed 1030 UTC 23 June 2019
Temperature: 33.0°C (91°F)
Dewpoint: 5.0°C (41°F) [RH = 17%]
Pressure (altimeter): 29.85 inches Hg (1011.0 mb)
Winds: from the NE (50 degrees) at 16 MPH (14 knots; 7.2 m/s)
Visibility: 6 or more miles (10+ km)
Ceiling: at least 12,000 feet AGL
Clouds: sky clear below 12,000 feet AGL
Weather: no significant weather observed at this time

METAR text: UTSS 231000Z 02012KT 350V060 9999 NSC 33/04 Q1011 R09/70D NOSIG
Conditions at: UTSS (SAMARKAND , UZ) observed 1000 UTC 23 June 2019
Temperature: 33.0°C (91°F)
Dewpoint: 4.0°C (39°F) [RH = 16%]
Pressure (altimeter): 29.85 inches Hg (1011.0 mb)
Winds: from the NNE (20 degrees) at 14 MPH (12 knots; 6.2 m/s)
Visibility: 6 or more miles (10+ km)
Ceiling: at least 12,000 feet AGL
Clouds: sky clear below 12,000 feet AGL
Weather: no significant weather observed at this time

METAR text: UTSS 230930Z 06014KT 9999 NSC 33/04 Q1011 R09/70D NOSIG
Conditions at: UTSS (SAMARKAND , UZ) observed 0930 UTC 23 June 2019
Temperature: 33.0°C (91°F)
Dewpoint: 4.0°C (39°F) [RH = 16%]
Pressure (altimeter): 29.85 inches Hg (1011.0 mb)
Winds: from the ENE (60 degrees) at 16 MPH (14 knots; 7.2 m/s)
Visibility: 6 or more miles (10+ km)
Ceiling: at least 12,000 feet AGL
Clouds: sky clear below 12,000 feet AGL
Weather: no significant weather observed at this time

METAR text: UTSS 230900Z 03012G22KT 360V070 9999 NSC 34/05 Q1011 R09/70D NOSIG
Conditions at: UTSS (SAMARKAND , UZ) observed 0900 UTC 23 June 2019
Temperature: 34.0°C (93°F)
Dewpoint: 5.0°C (41°F) [RH = 16%]
Pressure (altimeter): 29.85 inches Hg (1011.0 mb)
Winds: from the NNE (30 degrees) at 14 MPH (12 knots; 6.2 m/s)
gusting to 25 MPH (22 knots; 11.3 m/s)
Visibility: 6 or more miles (10+ km)
Ceiling: at least 12,000 feet AGL
Clouds: sky clear below 12,000 feet AGL
Weather: no significant weather observed at this time

METAR text: UTSS 230830Z 06012KT 360V090 9999 NSC 33/05 Q1011 R09/70D NOSIG
Conditions at: UTSS (SAMARKAND , UZ) observed 0830 UTC 23 June 2019
Temperature: 33.0°C (91°F)
Dewpoint: 5.0°C (41°F) [RH = 17%]
Pressure (altimeter): 29.85 inches Hg (1011.0 mb)
Winds: from the ENE (60 degrees) at 14 MPH (12 knots; 6.2 m/s)
Visibility: 6 or more miles (10+ km)
Ceiling: at least 12,000 feet AGL
Clouds: sky clear below 12,000 feet AGL
Weather: no significant weather observed at this time

METAR text: UTSS 230800Z 03010KT 350V110 9999 NSC 33/04 Q1011 R09/70D NOSIG
Conditions at: UTSS (SAMARKAND , UZ) observed 0800 UTC 23 June 2019
Temperature: 33.0°C (91°F)
Dewpoint: 4.0°C (39°F) [RH = 16%]
Pressure (altimeter): 29.85 inches Hg (1011.0 mb)
Winds: from the NNE (30 degrees) at 12 MPH (10 knots; 5.1 m/s)
Visibility: 6 or more miles (10+ km)
Ceiling: at least 12,000 feet AGL
Clouds: sky clear below 12,000 feet AGL
Weather: no significant weather observed at this time

METAR text: UTSS 230730Z 05012KT 350V090 9999 NSC 32/04 Q1012 R09/70D NOSIG
Conditions at: UTSS (SAMARKAND , UZ) observed 0730 UTC 23 June 2019
Temperature: 32.0°C (90°F)
Dewpoint: 4.0°C (39°F) [RH = 17%]
Pressure (altimeter): 29.88 inches Hg (1012.0 mb)
Winds: from the NE (50 degrees) at 14 MPH (12 knots; 6.2 m/s)
Visibility: 6 or more miles (10+ km)
Ceiling: at least 12,000 feet AGL
Clouds: sky clear below 12,000 feet AGL
Weather: no significant weather observed at this time

METAR text: UTSS 230700Z 03014KT 360V070 9999 NSC 32/04 Q1012 R09/70D NOSIG
Conditions at: UTSS (SAMARKAND , UZ) observed 0700 UTC 23 June 2019
Temperature: 32.0°C (90°F)
Dewpoint: 4.0°C (39°F) [RH = 17%]
Pressure (altimeter): 29.88 inches Hg (1012.0 mb)
Winds: from the NNE (30 degrees) at 16 MPH (14 knots; 7.2 m/s)
Visibility: 6 or more miles (10+ km)
Ceiling: at least 12,000 feet AGL
Clouds: sky clear below 12,000 feet AGL
Weather: no significant weather observed at this time

METAR text: UTSS 230630Z 06010G20KT 020V100 9999 NSC 31/04 Q1012 R09/70D NOSIG
Conditions at: UTSS (SAMARKAND , UZ) observed 0630 UTC 23 June 2019
Temperature: 31.0°C (88°F)
Dewpoint: 4.0°C (39°F) [RH = 18%]
Pressure (altimeter): 29.88 inches Hg (1012.0 mb)
Winds: from the ENE (60 degrees) at 12 MPH (10 knots; 5.1 m/s)
gusting to 23 MPH (20 knots; 10.3 m/s)
Visibility: 6 or more miles (10+ km)
Ceiling: at least 12,000 feet AGL
Clouds: sky clear below 12,000 feet AGL
Weather: no significant weather observed at this time

Forecast for: UTSS (SAMARKAND , UZ)
Text: TAF UTSS 241700Z 2418/2518 13010KT 9999 NSC
Forecast period: 1800 UTC 24 June 2019 to 1800 UTC 25 June 2019
Forecast type: FROM: standard forecast or significant change
Winds: from the SE (130 degrees) at 12 MPH (10 knots; 5.1 m/s)
Visibility: 6 or more miles 10+ km)
Ceiling: unknown
Clouds: missing
Weather: no significant weather forecast for this period
Text: TEMPO 2418/2503 07010G20KT
Forecast period: 1800 UTC 24 June 2019 to 0300 UTC 25 June 2019
Forecast type: TEMPORARY: The following changes expected for less than half the time period
Winds: from the ENE (70 degrees) at 12 MPH (10 knots; 5.1 m/s)
gusting to 23 MPH (20 knots; 10.3 m/s)
Visibility: missing
Ceiling: unknown
Clouds: missing
Weather: no significant weather forecast for this period